Normandie — FNNO — position and weather

sailwx.info

Track history (hours):
 
Tides and Currents Weather Stations Pressure Air Temp Water Temp Dewpoint Dewpoint Depression Visibility Wind Speed Wind Dir Waves Ship Positions

Normandie

Operator: Brittany Ferries

Last reported at 2017-Nov-20 00:30 UTC. Time now 2017-Nov-22 16:45 UTC.
Position N 49°45' W 000°26'.

Length 161 m; beam 27 m.

Type: Passenger vessel. MMSI: 227273000.

Date/timePositionNaut miles runAvg speedWind from/ knotsBaromVisibWave heightAir tempDewpointWater temp
2017-Nov-20 00:30N 49°45' W 000°26'611.9
2017-Nov-20 00:00N 49°39' W 000°22'611.5
2017-Nov-19 23:30N 49°34' W 000°19'510.3
2017-Nov-19 23:00N 49°29' W 000°19'611.3
2017-Nov-19 22:30N 49°24' W 000°16'510.9
2017-Nov-19 22:00N 49°18' W 000°15'1 1.8
2017-Nov-19 21:30N 49°17' W 000°15'0 0.0
2017-Nov-19 21:00N 49°17' W 000°15'0 0.0
2017-Nov-19 20:30N 49°17' W 000°15'4 8.6
2017-Nov-19 20:00N 49°22' W 000°14'917.1
2017-Nov-19 19:30N 49°30' W 000°17'816.8
2017-Nov-19 19:00N 49°38' W 000°21'917.0
2017-Nov-19 18:30N 49°46' W 000°25'917.8
2017-Nov-19 18:00N 49°54' W 000°31'918.2
2017-Nov-19 17:30N 50°03' W 000°36'3118.4
2017-Nov-19 15:49N 50°32' W 000°52'619.3
2017-Nov-19 15:30N 50°38' W 000°55'917.9
2017-Nov-19 15:00N 50°44' W 001°04'4 8.7
2017-Nov-19 14:30N 50°49' W 001°06'0 0.0
2017-Nov-19 14:00N 50°49' W 001°06'0 0.0
2017-Nov-19 13:30N 50°49' W 001°06'0 0.4
2017-Nov-19 13:00N 50°49' W 001°06'612.4
2017-Nov-19 12:31N 50°43' W 001°02'918.3
2017-Nov-19 12:01N 50°35' W 000°55'3319.0
2017-Nov-19 10:16N 50°04' W 000°36'519.0
2017-Nov-19 10:01N 49°59' W 000°34'1019.0
2017-Nov-19 09:30N 49°50' W 000°30'919.1
2017-Nov-19 09:01N 49°41' W 000°25'1019.1
2017-Nov-19 08:31N 49°32' W 000°21'918.6
2017-Nov-19 08:01N 49°23' W 000°16'612.2
2017-Nov-19 07:30N 49°17' W 000°15'0 0.0
2017-Nov-19 07:00N 49°17' W 000°15'0 0.0
2017-Nov-19 06:30N 49°17' W 000°15'0 0.0
2017-Nov-19 06:00N 49°17' W 000°15'0 0.2
2017-Nov-19 05:30N 49°17' W 000°15'713.0
2017-Nov-19 05:00N 49°24' W 000°14'714.3
2017-Nov-19 04:30N 49°31' W 000°18'714.6
2017-Nov-19 04:00N 49°37' W 000°22'714.8
2017-Nov-19 03:30N 49°44' W 000°27'714.5
2017-Nov-19 03:00N 49°50' W 000°32'714.3
2017-Nov-19 02:30N 49°57' W 000°37'814.2
2017-Nov-19 01:58N 50°04' W 000°41'2714.8
2017-Nov-19 00:09N 50°29' W 000°55'215.0
2017-Nov-18 23:59N 50°32' W 000°56'715.3
2017-Nov-18 23:30N 50°39' W 000°59'714.6
2017-Nov-18 23:01N 50°45' W 001°05'4 7.6
2017-Nov-18 22:31N 50°49' W 001°06'0 0.0
2017-Nov-18 22:01N 50°49' W 001°06'0 0.0
2017-Nov-18 21:31N 50°49' W 001°06'1 1.8
2017-Nov-18 21:01N 50°48' W 001°07'612.7
2017-Nov-18 20:31N 50°43' W 001°02'918.2
2017-Nov-18 20:00N 50°34' W 000°56'3917.9
2017-Nov-18 17:50N 49°57' W 000°38'618.2
2017-Nov-18 17:30N 49°52' W 000°35'1019.0
2017-Nov-18 17:00N 49°43' W 000°29'1019.3
2017-Nov-18 16:30N 49°34' W 000°22'1019.7
2017-Nov-18 16:00N 49°25' W 000°17'815.3
2017-Nov-18 15:31N 49°17' W 000°15'0 0.2
2017-Nov-18 15:01N 49°17' W 000°15'0 0.0
2017-Nov-18 14:31N 49°17' W 000°15'0 0.0
2017-Nov-18 14:01N 49°17' W 000°15'5 9.3
2017-Nov-18 13:31N 49°22' W 000°14'918.8
2017-Nov-18 13:01N 49°31' W 000°17'918.9
2017-Nov-18 12:31N 49°40' W 000°22'919.0
2017-Nov-18 12:01N 49°49' W 000°26'918.9
2017-Nov-18 11:30N 49°58' W 000°31'918.3
2017-Nov-18 11:01N 50°07' W 000°36'2819.8
2017-Nov-18 09:36N 50°32' W 000°54'619.8
2017-Nov-18 09:18N 50°38' W 000°58'517.8
2017-Nov-18 09:01N 50°42' W 001°02'713.6
2017-Nov-18 08:30N 50°48' W 001°07'1 1.7
2017-Nov-18 08:00N 50°49' W 001°06'0 0.0
2017-Nov-18 07:31N 50°49' W 001°06'0 0.0
2017-Nov-18 07:01N 50°49' W 001°06'0 0.2
2017-Nov-18 06:30N 50°49' W 001°06'611.1
2017-Nov-18 06:00N 50°44' W 001°02'612.4
2017-Nov-18 05:31N 50°38' W 000°58'510.5
2017-Nov-18 05:00N 50°33' W 000°55'510.3
2017-Nov-18 04:30N 50°28' W 000°53'711.0
2017-Nov-18 03:54N 50°22' W 000°48'2611.4
2017-Nov-18 01:36N 49°57' W 000°35'111.4
2017-Nov-18 01:31N 49°56' W 000°35'611.6
2017-Nov-18 01:01N 49°51' W 000°32'611.9
2017-Nov-18 00:30N 49°45' W 000°29'611.9
2017-Nov-18 00:01N 49°40' W 000°25'611.7
2017-Nov-17 23:31N 49°34' W 000°22'611.5
2017-Nov-17 23:01N 49°29' W 000°18'611.5
2017-Nov-17 22:31N 49°23' W 000°15'510.9
2017-Nov-17 22:01N 49°18' W 000°15'1 1.4
2017-Nov-17 21:31N 49°17' W 000°15'0 0.0
2017-Nov-17 21:01N 49°17' W 000°15'0 0.0
2017-Nov-17 20:31N 49°17' W 000°15'0 0.0
2017-Nov-17 20:01N 49°17' W 000°15'0 0.0
2017-Nov-17 19:31N 49°17' W 000°15'0 0.0
2017-Nov-17 19:00N 49°17' W 000°15'0 0.0
2017-Nov-17 18:31N 49°17' W 000°15'0 0.0
2017-Nov-17 18:01N 49°17' W 000°15'0 0.1
2017-Nov-17 17:30N 49°17' W 000°15'0 0.0
2017-Nov-17 17:01N 49°17' W 000°15'0 0.0
2017-Nov-17 16:31N 49°17' W 000°15'0 0.0
2017-Nov-17 16:01N 49°17' W 000°15'0 0.0
2017-Nov-17 15:31N 49°17' W 000°15'0 0.0
2017-Nov-17 15:01N 49°17' W 000°15'0 0.0
2017-Nov-17 14:31N 49°17' W 000°15'1 1.2
2017-Nov-17 14:00N 49°18' W 000°15'816.9
2017-Nov-17 13:30N 49°26' W 000°17'918.9
2017-Nov-17 13:00N 49°35' W 000°21'918.6
2017-Nov-17 12:30N 49°43' W 000°28'918.7
2017-Nov-17 12:00N 49°52' W 000°33'1019.1
2017-Nov-17 11:30N 50°01' W 000°38'2919.7
2017-Nov-17 10:03N 50°28' W 000°53'220.0
2017-Nov-17 09:57N 50°30' W 000°54'919.8
2017-Nov-17 09:30N 50°38' W 000°59'917.7
2017-Nov-17 09:00N 50°46' W 001°06'3 5.0
2017-Nov-17 08:30N 50°49' W 001°06'0 0.0
2017-Nov-17 08:00N 50°49' W 001°06'0 0.0
2017-Nov-17 07:30N 50°49' W 001°06'0 0.0
2017-Nov-17 07:00N 50°49' W 001°06'1 1.5
2017-Nov-17 06:30N 50°48' W 001°07'5 9.8
2017-Nov-17 06:00N 50°44' W 001°03'714.7
2017-Nov-17 05:30N 50°37' W 000°59'612.7
2017-Nov-17 05:00N 50°31' W 000°56'2711.2
2017-Nov-17 02:35N 50°06' W 000°41'2 9.8
2017-Nov-17 02:22N 50°04' W 000°40'410.3
2017-Nov-17 01:58N 49°60' W 000°39'511.0
2017-Nov-17 01:30N 49°55' W 000°37'611.5
2017-Nov-17 01:01N 49°49' W 000°34'611.7
2017-Nov-17 00:30N 49°44' W 000°31'612.2
2017-Nov-17 00:01N 49°38' W 000°27'612.3
2017-Nov-16 23:31N 49°33' W 000°23'611.8
2017-Nov-16 23:00N 49°27' W 000°18'611.8
2017-Nov-16 22:30N 49°22' W 000°15'5 9.2
2017-Nov-16 22:00N 49°17' W 000°15'0 0.0
2017-Nov-16 21:30N 49°17' W 000°15'0 0.0
2017-Nov-16 21:00N 49°17' W 000°15'0 0.0
2017-Nov-16 20:30N 49°17' W 000°15'5 9.7
2017-Nov-16 20:00N 49°22' W 000°15'817.0
2017-Nov-16 19:30N 49°30' W 000°19'816.5
2017-Nov-16 19:00N 49°38' W 000°22'917.1
2017-Nov-16 18:30N 49°46' W 000°27'917.4
2017-Nov-16 18:00N 49°54' W 000°31'4018.8
2017-Nov-16 15:52N 50°32' W 000°54'719.5
2017-Nov-16 15:30N 50°38' W 000°58'816.3
2017-Nov-16 15:00N 50°45' W 001°05'4 7.0
2017-Nov-16 14:30N 50°49' W 001°06'0 0.0
2017-Nov-16 14:00N 50°49' W 001°06'0 0.0
2017-Nov-16 13:30N 50°49' W 001°06'0 1.0
2017-Nov-16 13:00N 50°49' W 001°07'613.0
2017-Nov-16 12:31N 50°43' W 001°02'917.6
2017-Nov-16 12:01N 50°34' W 000°58'3318.5
2017-Nov-16 10:14N 50°04' W 000°39'618.5
2017-Nov-16 09:55N 49°58' W 000°35'718.4
2017-Nov-16 09:31N 49°51' W 000°31'918.2
2017-Nov-16 09:01N 49°43' W 000°27'1019.1
2017-Nov-16 08:30N 49°34' W 000°22'1019.4
2017-Nov-16 08:01N 49°25' W 000°17'815.0
2017-Nov-16 07:31N 49°17' W 000°15'0 0.1
2017-Nov-16 07:01N 49°17' W 000°15'0 0.0
2017-Nov-16 06:31N 49°17' W 000°15'0 0.0
2017-Nov-16 06:01N 49°17' W 000°15'0 0.2
2017-Nov-16 05:31N 49°17' W 000°15'714.1
2017-Nov-16 05:00N 49°24' W 000°15'816.1
2017-Nov-16 04:30N 49°32' W 000°19'815.9
2017-Nov-16 04:00N 49°39' W 000°23'815.7
2017-Nov-16 03:30N 49°47' W 000°28'815.5
2017-Nov-16 03:00N 49°54' W 000°33'815.2
2017-Nov-16 02:30N 50°01' W 000°37'1115.0
2017-Nov-16 01:46N 50°11' W 000°43'2216.2
2017-Nov-16 00:24N 50°32' W 000°55'717.2
2017-Nov-16 00:00N 50°38' W 000°59'816.4
2017-Nov-15 23:30N 50°45' W 001°05'3 6.6
2017-Nov-15 23:00N 50°49' W 001°06'0 0.0
2017-Nov-15 22:30N 50°49' W 001°06'0 0.0
2017-Nov-15 22:00N 50°49' W 001°06'0 0.2
2017-Nov-15 21:30N 50°49' W 001°06'510.4
2017-Nov-15 21:00N 50°44' W 001°04'918.8
2017-Nov-15 20:30N 50°35' W 000°57'4019.0
2017-Nov-15 18:25N 49°59' W 000°31'818.9
2017-Nov-15 18:00N 49°52' W 000°28'918.9
2017-Nov-15 17:30N 49°43' W 000°23'918.9
2017-Nov-15 17:00N 49°34' W 000°20'918.6
2017-Nov-15 16:31N 49°25' W 000°15'714.7
2017-Nov-15 16:00N 49°17' W 000°15'0 0.1
2017-Nov-15 15:30N 49°17' W 000°15'0 0.0
2017-Nov-15 15:00N 49°17' W 000°15'0 0.0
2017-Nov-15 14:30N 49°17' W 000°15'1 2.0
2017-Nov-15 14:00N 49°18' W 000°15'816.6
2017-Nov-15 13:31N 49°27' W 000°16'1019.5
2017-Nov-15 13:01N 49°36' W 000°17'1019.3
2017-Nov-15 12:31N 49°45' W 000°22'1019.2
2017-Nov-15 12:00N 49°54' W 000°28'1019.2
2017-Nov-15 11:30N 50°03' W 000°33'3219.2
2017-Nov-15 09:52N 50°32' W 000°54'718.9
2017-Nov-15 09:31N 50°38' W 000°58'917.5
2017-Nov-15 09:01N 50°46' W 001°05'3 6.3
2017-Nov-15 08:30N 50°49' W 001°06'0 0.0
2017-Nov-15 08:00N 50°49' W 001°06'0 0.0
2017-Nov-15 07:30N 50°49' W 001°06'0 0.0
2017-Nov-15 07:00N 50°49' W 001°06'0 0.2
2017-Nov-15 06:30N 50°49' W 001°06'4 8.2
2017-Nov-15 06:00N 50°45' W 001°05'816.4
2017-Nov-15 05:30N 50°38' W 000°58'815.6
2017-Nov-15 05:00N 50°31' W 000°52'2314.6
2017-Nov-15 03:27N 50°09' W 000°40'511.5
2017-Nov-15 02:59N 50°04' W 000°37'510.8
2017-Nov-15 02:31N 49°60' W 000°35'611.0
2017-Nov-15 02:00N 49°54' W 000°32'611.1
2017-Nov-15 01:31N 49°49' W 000°29'611.3
2017-Nov-15 01:01N 49°44' W 000°27'611.4
2017-Nov-15 00:30N 49°38' W 000°24'611.7
2017-Nov-15 00:01N 49°33' W 000°20'611.7
2017-Nov-14 23:31N 49°27' W 000°18'611.9
2017-Nov-14 23:01N 49°22' W 000°15'4 8.4
2017-Nov-14 22:30N 49°17' W 000°15'0 0.0
2017-Nov-14 22:00N 49°17' W 000°15'0 0.0
2017-Nov-14 21:30N 49°17' W 000°15'0 0.0
2017-Nov-14 21:01N 49°17' W 000°15'3 5.0
2017-Nov-14 20:31N 49°20' W 000°14'919.0
2017-Nov-14 20:01N 49°29' W 000°16'1019.5
2017-Nov-14 19:31N 49°38' W 000°21'1019.9
2017-Nov-14 19:01N 49°48' W 000°26'1020.1
2017-Nov-14 18:31N 49°57' W 000°31'1020.1
2017-Nov-14 17:59N 50°07' W 000°37'2719.7
2017-Nov-14 16:37N 50°32' W 000°54'619.9
2017-Nov-14 16:20N 50°37' W 000°58'516.7
2017-Nov-14 16:00N 50°42' W 001°02'714.0
2017-Nov-14 15:30N 50°48' W 001°07'1 1.9
2017-Nov-14 15:00N 50°49' W 001°06'0 0.0
2017-Nov-14 14:30N 50°49' W 001°06'0 0.0
2017-Nov-14 14:00N 50°49' W 001°06'1 2.2
2017-Nov-14 13:30N 50°48' W 001°07'713.7
2017-Nov-14 13:00N 50°43' W 000°59'917.9
2017-Nov-14 12:30N 50°34' W 000°58'2519.3
2017-Nov-14 11:14N 50°11' W 000°45'520.0
2017-Nov-14 11:00N 50°06' W 000°43'1020.2
2017-Nov-14 10:30N 49°57' W 000°38'1020.4
2017-Nov-14 10:00N 49°47' W 000°33'1019.4
2017-Nov-14 09:30N 49°39' W 000°26'917.7
2017-Nov-14 09:00N 49°31' W 000°19'1019.7
2017-Nov-14 08:31N 49°21' W 000°15'4 8.2
2017-Nov-14 08:01N 49°17' W 000°15'0 0.0
2017-Nov-14 07:31N 49°17' W 000°15'0 0.0
2017-Nov-14 07:00N 49°17' W 000°15'0 0.0
2017-Nov-14 06:30N 49°17' W 000°15'0 0.0
2017-Nov-14 06:01N 49°17' W 000°15'3 6.4
2017-Nov-14 05:30N 49°21' W 000°14'917.6
2017-Nov-14 05:00N 49°29' W 000°14'816.3
2017-Nov-14 04:30N 49°37' W 000°18'816.7
2017-Nov-14 04:00N 49°45' W 000°23'816.6
2017-Nov-14 03:30N 49°52' W 000°29'816.3
2017-Nov-14 03:00N 49°60' W 000°34'916.7
2017-Nov-14 02:30N 50°07' W 000°40'2517.1
2017-Nov-14 01:03N 50°30' W 000°54'216.9
2017-Nov-14 00:57N 50°32' W 000°55'717.0
2017-Nov-14 00:30N 50°39' W 000°59'714.3
2017-Nov-14 00:01N 50°45' W 001°05'4 7.6
2017-Nov-13 23:30N 50°49' W 001°06'0 0.0
2017-Nov-13 23:00N 50°49' W 001°06'0 0.0
2017-Nov-13 22:30N 50°49' W 001°06'0 0.0
2017-Nov-13 22:00N 50°49' W 001°06'60 3.0
2017-Nov-13 01:54N 49°49' W 001°00'613.0
2017-Nov-13 01:28N 49°43' W 001°01'612.8
2017-Nov-13 01:00N 49°37' W 001°01'713.1
2017-Nov-13 00:30N 49°34' W 000°53'713.7
2017-Nov-13 00:00N 49°31' W 000°43'713.9
2017-Nov-12 23:31N 49°28' W 000°33'714.0
2017-Nov-12 23:00N 49°25' W 000°24'713.9
2017-Nov-12 22:30N 49°21' W 000°15'4 7.6
2017-Nov-12 22:00N 49°17' W 000°15'0 0.0
2017-Nov-12 21:30N 49°17' W 000°15'0 0.0
2017-Nov-12 21:00N 49°17' W 000°15'0 0.0
2017-Nov-12 20:30N 49°17' W 000°15'2 3.6
2017-Nov-12 20:00N 49°19' W 000°15'918.5
2017-Nov-12 19:30N 49°28' W 000°18'1019.7
2017-Nov-12 19:00N 49°37' W 000°25'1019.9
2017-Nov-12 18:30N 49°46' W 000°31'1020.1
2017-Nov-12 18:00N 49°56' W 000°36'1020.3
2017-Nov-12 17:30N 50°05' W 000°41'2820.1
2017-Nov-12 16:06N 50°32' W 000°54'220.2
2017-Nov-12 16:00N 50°34' W 000°56'918.5
2017-Nov-12 15:30N 50°42' W 001°01'713.9
2017-Nov-12 15:01N 50°48' W 001°07'1 1.5
2017-Nov-12 14:31N 50°49' W 001°06'0 0.0
2017-Nov-12 14:01N 50°49' W 001°06'0 0.0
2017-Nov-12 13:31N 50°49' W 001°06'1 1.1
2017-Nov-12 13:01N 50°49' W 001°07'611.8
2017-Nov-12 12:30N 50°43' W 001°02'917.3
2017-Nov-12 12:00N 50°35' W 000°57'2718.6
2017-Nov-12 10:32N 50°11' W 000°37'118.4
2017-Nov-12 10:30N 50°11' W 000°37'918.6
2017-Nov-12 10:00N 50°01' W 000°35'918.7
2017-Nov-12 09:30N 49°52' W 000°32'918.9
2017-Nov-12 09:00N 49°43' W 000°27'1019.0
2017-Nov-12 08:30N 49°35' W 000°22'918.9
2017-Nov-12 08:00N 49°26' W 000°17'816.5
2017-Nov-12 07:30N 49°18' W 000°15'0 0.4
2017-Nov-12 07:00N 49°17' W 000°15'0 0.0
2017-Nov-12 06:30N 49°17' W 000°15'0 0.0
2017-Nov-12 06:00N 49°17' W 000°15'0 0.1
2017-Nov-12 05:30N 49°17' W 000°15'713.9
2017-Nov-12 05:01N 49°24' W 000°14'815.2
2017-Nov-12 04:31N 49°31' W 000°18'815.6
2017-Nov-12 04:01N 49°38' W 000°24'815.5
2017-Nov-12 03:31N 49°45' W 000°29'815.4
2017-Nov-12 03:01N 49°52' W 000°33'815.6
2017-Nov-12 02:31N 49°60' W 000°37'815.6
2017-Nov-12 02:01N 50°07' W 000°43'2215.0
2017-Nov-12 00:31N 50°28' W 000°52'015.4
2017-Nov-12 00:29N 50°29' W 000°52'715.4
2017-Nov-12 00:01N 50°35' W 000°56'714.6
2017-Nov-11 23:31N 50°43' W 000°59'713.5
2017-Nov-11 23:01N 50°47' W 001°07'1 3.0
2017-Nov-11 22:31N 50°49' W 001°06'0 0.0
2017-Nov-11 22:00N 50°49' W 001°06'0 0.0
2017-Nov-11 21:30N 50°49' W 001°06'3 5.1
2017-Nov-11 21:00N 50°46' W 001°05'816.7
2017-Nov-11 20:30N 50°39' W 000°59'1019.6
2017-Nov-11 20:00N 50°30' W 000°53'2319.9
2017-Nov-11 18:52N 50°09' W 000°38'719.8
2017-Nov-11 18:30N 50°03' W 000°34'1019.6
2017-Nov-11 18:00N 49°54' W 000°28'1019.1
2017-Nov-11 17:30N 49°45' W 000°22'918.7
2017-Nov-11 17:00N 49°36' W 000°17'918.7
2017-Nov-11 16:30N 49°27' W 000°17'917.7
2017-Nov-11 16:00N 49°18' W 000°15'1 1.3
2017-Nov-11 15:30N 49°17' W 000°15'0 0.0
2017-Nov-11 15:00N 49°17' W 000°15'0 0.0
2017-Nov-11 14:30N 49°17' W 000°15'0 0.0
2017-Nov-11 14:00N 49°17' W 000°15'5 9.4
2017-Nov-11 13:31N 49°22' W 000°14'1019.7
2017-Nov-11 13:00N 49°32' W 000°18'1020.5
2017-Nov-11 12:31N 49°41' W 000°25'1020.6
2017-Nov-11 12:01N 49°50' W 000°32'1020.5
2017-Nov-11 11:31N 49°59' W 000°40'1020.1
2017-Nov-11 11:00N 50°08' W 000°47'2319.7
2017-Nov-11 09:49N 50°30' W 000°59'619.2
2017-Nov-11 09:31N 50°36' W 000°60'816.8
2017-Nov-11 09:01N 50°44' W 001°04'510.0
2017-Nov-11 08:30N 50°49' W 001°06'0 0.0
2017-Nov-11 08:00N 50°49' W 001°06'0 0.0
2017-Nov-11 07:30N 50°49' W 001°06'0 0.0
2017-Nov-11 07:00N 50°49' W 001°06'0 0.0
2017-Nov-11 06:30N 50°49' W 001°06'3 6.4
2017-Nov-11 06:00N 50°45' W 001°05'917.4
2017-Nov-11 05:30N 50°38' W 000°59'816.8
2017-Nov-11 05:00N 50°29' W 000°59'1715.1
2017-Nov-11 03:54N 50°13' W 000°55'615.3
2017-Nov-11 03:30N 50°07' W 000°54'815.1
2017-Nov-11 03:00N 49°59' W 000°54'714.9
2017-Nov-11 02:30N 49°52' W 000°53'715.0
2017-Nov-11 02:01N 49°44' W 000°53'815.1
2017-Nov-11 01:30N 49°37' W 000°53'510.2
2017-Nov-11 01:00N 49°34' W 000°47'5 9.7
2017-Nov-11 00:30N 49°31' W 000°41'5 9.8
2017-Nov-11 00:00N 49°28' W 000°35'5 9.8
2017-Nov-10 23:30N 49°26' W 000°28'5 9.8
2017-Nov-10 23:00N 49°24' W 000°21'611.6
2017-Nov-10 22:30N 49°20' W 000°14'3 5.6
2017-Nov-10 22:00N 49°17' W 000°15'0 0.0
2017-Nov-10 21:30N 49°17' W 000°15'0 0.0
2017-Nov-10 21:00N 49°17' W 000°15'0 0.0
2017-Nov-10 20:30N 49°17' W 000°15'0 0.0
2017-Nov-10 20:00N 49°17' W 000°15'0 0.0
2017-Nov-10 19:30N 49°17' W 000°15'0 0.0
2017-Nov-10 19:00N 49°17' W 000°15'0 0.0
2017-Nov-10 18:30N 49°17' W 000°15'0 0.0
2017-Nov-10 18:00N 49°17' W 000°15'0 0.0
2017-Nov-10 17:30N 49°17' W 000°15'0 0.0
2017-Nov-10 17:00N 49°17' W 000°15'0 0.0
2017-Nov-10 16:30N 49°17' W 000°15'0 0.0
2017-Nov-10 16:00N 49°17' W 000°15'0 0.0
2017-Nov-10 15:30N 49°17' W 000°15'0 0.0
2017-Nov-10 15:00N 49°17' W 000°15'0 0.0
2017-Nov-10 14:30N 49°17' W 000°15'0 0.1
2017-Nov-10 14:00N 49°17' W 000°15'510.0
2017-Nov-10 13:31N 49°22' W 000°14'714.3
2017-Nov-10 13:01N 49°29' W 000°18'917.3
2017-Nov-10 12:31N 49°37' W 000°22'918.1
2017-Nov-10 12:01N 49°46' W 000°28'918.3
2017-Nov-10 11:30N 49°54' W 000°33'918.8
2017-Nov-10 11:00N 50°03' W 000°38'3219.6
2017-Nov-10 09:21N 50°33' W 000°56'719.4
2017-Nov-10 09:01N 50°40' W 000°58'816.6
2017-Nov-10 08:30N 50°46' W 001°06'2 4.4
2017-Nov-10 08:00N 50°49' W 001°06'0 0.0
2017-Nov-10 07:30N 50°49' W 001°06'0 0.0
2017-Nov-10 07:00N 50°49' W 001°06'0 0.2
2017-Nov-10 06:30N 50°49' W 001°06'4 7.5
2017-Nov-10 06:01N 50°45' W 001°05'816.9
2017-Nov-10 05:30N 50°38' W 000°58'815.7
2017-Nov-10 04:59N 50°30' W 000°54'2015.3
2017-Nov-10 03:41N 50°11' W 000°43'314.8
2017-Nov-10 03:30N 50°09' W 000°41'714.5
2017-Nov-10 03:00N 50°02' W 000°37'714.5
2017-Nov-10 02:30N 49°55' W 000°34'611.6
2017-Nov-10 02:00N 49°50' W 000°30'510.8
2017-Nov-10 01:30N 49°45' W 000°27'510.7
2017-Nov-10 01:00N 49°40' W 000°24'  
Track history (hours):
 
Tides and Currents Weather Stations Pressure Air Temp Water Temp Dewpoint Dewpoint Depression Visibility Wind Speed Wind Dir Waves Ship Positions

Normandie

Operator: Brittany Ferries

Last reported at 2017-Nov-20 00:30 UTC. Time now 2017-Nov-22 16:45 UTC.
Position N 49°45' W 000°26'.

Length 161 m; beam 27 m.

Type: Passenger vessel. MMSI: 227273000.

Date/timePositionNaut miles runAvg speedWind from/ knotsBaromVisibWave heightAir tempDewpointWater temp
2017-Nov-20 00:30N 49°45' W 000°26'611.9
2017-Nov-20 00:00N 49°39' W 000°22'611.5
2017-Nov-19 23:30N 49°34' W 000°19'510.3
2017-Nov-19 23:00N 49°29' W 000°19'611.3
2017-Nov-19 22:30N 49°24' W 000°16'510.9
2017-Nov-19 22:00N 49°18' W 000°15'1 1.8
2017-Nov-19 21:30N 49°17' W 000°15'0 0.0
2017-Nov-19 21:00N 49°17' W 000°15'0 0.0
2017-Nov-19 20:30N 49°17' W 000°15'4 8.6
2017-Nov-19 20:00N 49°22' W 000°14'917.1
2017-Nov-19 19:30N 49°30' W 000°17'816.8
2017-Nov-19 19:00N 49°38' W 000°21'917.0
2017-Nov-19 18:30N 49°46' W 000°25'917.8
2017-Nov-19 18:00N 49°54' W 000°31'918.2
2017-Nov-19 17:30N 50°03' W 000°36'3118.4
2017-Nov-19 15:49N 50°32' W 000°52'619.3
2017-Nov-19 15:30N 50°38' W 000°55'917.9
2017-Nov-19 15:00N 50°44' W 001°04'4 8.7
2017-Nov-19 14:30N 50°49' W 001°06'0 0.0
2017-Nov-19 14:00N 50°49' W 001°06'0 0.0
2017-Nov-19 13:30N 50°49' W 001°06'0 0.4
2017-Nov-19 13:00N 50°49' W 001°06'612.4
2017-Nov-19 12:31N 50°43' W 001°02'918.3
2017-Nov-19 12:01N 50°35' W 000°55'3319.0
2017-Nov-19 10:16N 50°04' W 000°36'519.0
2017-Nov-19 10:01N 49°59' W 000°34'1019.0
2017-Nov-19 09:30N 49°50' W 000°30'919.1
2017-Nov-19 09:01N 49°41' W 000°25'1019.1
2017-Nov-19 08:31N 49°32' W 000°21'918.6
2017-Nov-19 08:01N 49°23' W 000°16'612.2
2017-Nov-19 07:30N 49°17' W 000°15'0 0.0
2017-Nov-19 07:00N 49°17' W 000°15'0 0.0
2017-Nov-19 06:30N 49°17' W 000°15'0 0.0
2017-Nov-19 06:00N 49°17' W 000°15'0 0.2
2017-Nov-19 05:30N 49°17' W 000°15'713.0
2017-Nov-19 05:00N 49°24' W 000°14'714.3
2017-Nov-19 04:30N 49°31' W 000°18'714.6
2017-Nov-19 04:00N 49°37' W 000°22'714.8
2017-Nov-19 03:30N 49°44' W 000°27'714.5
2017-Nov-19 03:00N 49°50' W 000°32'714.3
2017-Nov-19 02:30N 49°57' W 000°37'814.2
2017-Nov-19 01:58N 50°04' W 000°41'2714.8
2017-Nov-19 00:09N 50°29' W 000°55'215.0
2017-Nov-18 23:59N 50°32' W 000°56'715.3
2017-Nov-18 23:30N 50°39' W 000°59'714.6
2017-Nov-18 23:01N 50°45' W 001°05'4 7.6
2017-Nov-18 22:31N 50°49' W 001°06'0 0.0
2017-Nov-18 22:01N 50°49' W 001°06'0 0.0
2017-Nov-18 21:31N 50°49' W 001°06'1 1.8
2017-Nov-18 21:01N 50°48' W 001°07'612.7
2017-Nov-18 20:31N 50°43' W 001°02'918.2
2017-Nov-18 20:00N 50°34' W 000°56'3917.9
2017-Nov-18 17:50N 49°57' W 000°38'618.2
2017-Nov-18 17:30N 49°52' W 000°35'1019.0
2017-Nov-18 17:00N 49°43' W 000°29'1019.3
2017-Nov-18 16:30N 49°34' W 000°22'1019.7
2017-Nov-18 16:00N 49°25' W 000°17'815.3
2017-Nov-18 15:31N 49°17' W 000°15'0 0.2
2017-Nov-18 15:01N 49°17' W 000°15'0 0.0
2017-Nov-18 14:31N 49°17' W 000°15'0 0.0
2017-Nov-18 14:01N 49°17' W 000°15'5 9.3
2017-Nov-18 13:31N 49°22' W 000°14'918.8
2017-Nov-18 13:01N 49°31' W 000°17'918.9
2017-Nov-18 12:31N 49°40' W 000°22'919.0
2017-Nov-18 12:01N 49°49' W 000°26'918.9
2017-Nov-18 11:30N 49°58' W 000°31'918.3
2017-Nov-18 11:01N 50°07' W 000°36'2819.8
2017-Nov-18 09:36N 50°32' W 000°54'619.8
2017-Nov-18 09:18N 50°38' W 000°58'517.8
2017-Nov-18 09:01N 50°42' W 001°02'713.6
2017-Nov-18 08:30N 50°48' W 001°07'1 1.7
2017-Nov-18 08:00N 50°49' W 001°06'0 0.0
2017-Nov-18 07:31N 50°49' W 001°06'0 0.0
2017-Nov-18 07:01N 50°49' W 001°06'0 0.2
2017-Nov-18 06:30N 50°49' W 001°06'611.1
2017-Nov-18 06:00N 50°44' W 001°02'612.4
2017-Nov-18 05:31N 50°38' W 000°58'510.5
2017-Nov-18 05:00N 50°33' W 000°55'510.3
2017-Nov-18 04:30N 50°28' W 000°53'711.0
2017-Nov-18 03:54N 50°22' W 000°48'2611.4
2017-Nov-18 01:36N 49°57' W 000°35'111.4
2017-Nov-18 01:31N 49°56' W 000°35'611.6
2017-Nov-18 01:01N 49°51' W 000°32'611.9
2017-Nov-18 00:30N 49°45' W 000°29'611.9
2017-Nov-18 00:01N 49°40' W 000°25'611.7
2017-Nov-17 23:31N 49°34' W 000°22'611.5
2017-Nov-17 23:01N 49°29' W 000°18'611.5
2017-Nov-17 22:31N 49°23' W 000°15'510.9
2017-Nov-17 22:01N 49°18' W 000°15'1 1.4
2017-Nov-17 21:31N 49°17' W 000°15'0 0.0
2017-Nov-17 21:01N 49°17' W 000°15'0 0.0
2017-Nov-17 20:31N 49°17' W 000°15'0 0.0
2017-Nov-17 20:01N 49°17' W 000°15'0 0.0
2017-Nov-17 19:31N 49°17' W 000°15'0 0.0
2017-Nov-17 19:00N 49°17' W 000°15'0 0.0
2017-Nov-17 18:31N 49°17' W 000°15'0 0.0
2017-Nov-17 18:01N 49°17' W 000°15'0 0.1
2017-Nov-17 17:30N 49°17' W 000°15'0 0.0
2017-Nov-17 17:01N 49°17' W 000°15'0 0.0
2017-Nov-17 16:31N 49°17' W 000°15'0 0.0
2017-Nov-17 16:01N 49°17' W 000°15'0 0.0
2017-Nov-17 15:31N 49°17' W 000°15'0 0.0
2017-Nov-17 15:01N 49°17' W 000°15'0 0.0
2017-Nov-17 14:31N 49°17' W 000°15'1 1.2
2017-Nov-17 14:00N 49°18' W 000°15'816.9
2017-Nov-17 13:30N 49°26' W 000°17'918.9
2017-Nov-17 13:00N 49°35' W 000°21'918.6
2017-Nov-17 12:30N 49°43' W 000°28'918.7
2017-Nov-17 12:00N 49°52' W 000°33'1019.1
2017-Nov-17 11:30N 50°01' W 000°38'2919.7
2017-Nov-17 10:03N 50°28' W 000°53'220.0
2017-Nov-17 09:57N 50°30' W 000°54'919.8
2017-Nov-17 09:30N 50°38' W 000°59'917.7
2017-Nov-17 09:00N 50°46' W 001°06'3 5.0
2017-Nov-17 08:30N 50°49' W 001°06'0 0.0
2017-Nov-17 08:00N 50°49' W 001°06'0 0.0
2017-Nov-17 07:30N 50°49' W 001°06'0 0.0
2017-Nov-17 07:00N 50°49' W 001°06'1 1.5
2017-Nov-17 06:30N 50°48' W 001°07'5 9.8
2017-Nov-17 06:00N 50°44' W 001°03'714.7
2017-Nov-17 05:30N 50°37' W 000°59'612.7
2017-Nov-17 05:00N 50°31' W 000°56'2711.2
2017-Nov-17 02:35N 50°06' W 000°41'2 9.8
2017-Nov-17 02:22N 50°04' W 000°40'410.3
2017-Nov-17 01:58N 49°60' W 000°39'511.0
2017-Nov-17 01:30N 49°55' W 000°37'611.5
2017-Nov-17 01:01N 49°49' W 000°34'611.7
2017-Nov-17 00:30N 49°44' W 000°31'612.2
2017-Nov-17 00:01N 49°38' W 000°27'612.3
2017-Nov-16 23:31N 49°33' W 000°23'611.8
2017-Nov-16 23:00N 49°27' W 000°18'611.8
2017-Nov-16 22:30N 49°22' W 000°15'5 9.2
2017-Nov-16 22:00N 49°17' W 000°15'0 0.0
2017-Nov-16 21:30N 49°17' W 000°15'0 0.0
2017-Nov-16 21:00N 49°17' W 000°15'0 0.0
2017-Nov-16 20:30N 49°17' W 000°15'5 9.7
2017-Nov-16 20:00N 49°22' W 000°15'817.0
2017-Nov-16 19:30N 49°30' W 000°19'816.5
2017-Nov-16 19:00N 49°38' W 000°22'917.1
2017-Nov-16 18:30N 49°46' W 000°27'917.4
2017-Nov-16 18:00N 49°54' W 000°31'4018.8
2017-Nov-16 15:52N 50°32' W 000°54'719.5
2017-Nov-16 15:30N 50°38' W 000°58'816.3
2017-Nov-16 15:00N 50°45' W 001°05'4 7.0
2017-Nov-16 14:30N 50°49' W 001°06'0 0.0
2017-Nov-16 14:00N 50°49' W 001°06'0 0.0
2017-Nov-16 13:30N 50°49' W 001°06'0 1.0
2017-Nov-16 13:00N 50°49' W 001°07'613.0
2017-Nov-16 12:31N 50°43' W 001°02'917.6
2017-Nov-16 12:01N 50°34' W 000°58'3318.5
2017-Nov-16 10:14N 50°04' W 000°39'618.5
2017-Nov-16 09:55N 49°58' W 000°35'718.4
2017-Nov-16 09:31N 49°51' W 000°31'918.2
2017-Nov-16 09:01N 49°43' W 000°27'1019.1
2017-Nov-16 08:30N 49°34' W 000°22'1019.4
2017-Nov-16 08:01N 49°25' W 000°17'815.0
2017-Nov-16 07:31N 49°17' W 000°15'0 0.1
2017-Nov-16 07:01N 49°17' W 000°15'0 0.0
2017-Nov-16 06:31N 49°17' W 000°15'0 0.0
2017-Nov-16 06:01N 49°17' W 000°15'0 0.2
2017-Nov-16 05:31N 49°17' W 000°15'714.1
2017-Nov-16 05:00N 49°24' W 000°15'816.1
2017-Nov-16 04:30N 49°32' W 000°19'815.9
2017-Nov-16 04:00N 49°39' W 000°23'815.7
2017-Nov-16 03:30N 49°47' W 000°28'815.5
2017-Nov-16 03:00N 49°54' W 000°33'815.2
2017-Nov-16 02:30N 50°01' W 000°37'1115.0
2017-Nov-16 01:46N 50°11' W 000°43'2216.2
2017-Nov-16 00:24N 50°32' W 000°55'717.2
2017-Nov-16 00:00N 50°38' W 000°59'816.4
2017-Nov-15 23:30N 50°45' W 001°05'3 6.6
2017-Nov-15 23:00N 50°49' W 001°06'0 0.0
2017-Nov-15 22:30N 50°49' W 001°06'0 0.0
2017-Nov-15 22:00N 50°49' W 001°06'0 0.2
2017-Nov-15 21:30N 50°49' W 001°06'510.4
2017-Nov-15 21:00N 50°44' W 001°04'918.8
2017-Nov-15 20:30N 50°35' W 000°57'4019.0
2017-Nov-15 18:25N 49°59' W 000°31'818.9
2017-Nov-15 18:00N 49°52' W 000°28'918.9
2017-Nov-15 17:30N 49°43' W 000°23'918.9
2017-Nov-15 17:00N 49°34' W 000°20'918.6
2017-Nov-15 16:31N 49°25' W 000°15'714.7
2017-Nov-15 16:00N 49°17' W 000°15'0 0.1
2017-Nov-15 15:30N 49°17' W 000°15'0 0.0
2017-Nov-15 15:00N 49°17' W 000°15'0 0.0
2017-Nov-15 14:30N 49°17' W 000°15'1 2.0
2017-Nov-15 14:00N 49°18' W 000°15'816.6
2017-Nov-15 13:31N 49°27' W 000°16'1019.5
2017-Nov-15 13:01N 49°36' W 000°17'1019.3
2017-Nov-15 12:31N 49°45' W 000°22'1019.2
2017-Nov-15 12:00N 49°54' W 000°28'1019.2
2017-Nov-15 11:30N 50°03' W 000°33'3219.2
2017-Nov-15 09:52N 50°32' W 000°54'718.9
2017-Nov-15 09:31N 50°38' W 000°58'917.5
2017-Nov-15 09:01N 50°46' W 001°05'3 6.3
2017-Nov-15 08:30N 50°49' W 001°06'0 0.0
2017-Nov-15 08:00N 50°49' W 001°06'0 0.0
2017-Nov-15 07:30N 50°49' W 001°06'0 0.0
2017-Nov-15 07:00N 50°49' W 001°06'0 0.2
2017-Nov-15 06:30N 50°49' W 001°06'4 8.2
2017-Nov-15 06:00N 50°45' W 001°05'816.4
2017-Nov-15 05:30N 50°38' W 000°58'815.6
2017-Nov-15 05:00N 50°31' W 000°52'2314.6
2017-Nov-15 03:27N 50°09' W 000°40'511.5
2017-Nov-15 02:59N 50°04' W 000°37'510.8
2017-Nov-15 02:31N 49°60' W 000°35'611.0
2017-Nov-15 02:00N 49°54' W 000°32'611.1
2017-Nov-15 01:31N 49°49' W 000°29'611.3
2017-Nov-15 01:01N 49°44' W 000°27'611.4
2017-Nov-15 00:30N 49°38' W 000°24'611.7
2017-Nov-15 00:01N 49°33' W 000°20'611.7
2017-Nov-14 23:31N 49°27' W 000°18'611.9
2017-Nov-14 23:01N 49°22' W 000°15'4 8.4
2017-Nov-14 22:30N 49°17' W 000°15'0 0.0
2017-Nov-14 22:00N 49°17' W 000°15'0 0.0
2017-Nov-14 21:30N 49°17' W 000°15'0 0.0
2017-Nov-14 21:01N 49°17' W 000°15'3 5.0
2017-Nov-14 20:31N 49°20' W 000°14'919.0
2017-Nov-14 20:01N 49°29' W 000°16'1019.5
2017-Nov-14 19:31N 49°38' W 000°21'1019.9
2017-Nov-14 19:01N 49°48' W 000°26'1020.1
2017-Nov-14 18:31N 49°57' W 000°31'1020.1
2017-Nov-14 17:59N 50°07' W 000°37'2719.7
2017-Nov-14 16:37N 50°32' W 000°54'619.9
2017-Nov-14 16:20N 50°37' W 000°58'516.7
2017-Nov-14 16:00N 50°42' W 001°02'714.0
2017-Nov-14 15:30N 50°48' W 001°07'1 1.9
2017-Nov-14 15:00N 50°49' W 001°06'0 0.0
2017-Nov-14 14:30N 50°49' W 001°06'0 0.0
2017-Nov-14 14:00N 50°49' W 001°06'1 2.2
2017-Nov-14 13:30N 50°48' W 001°07'713.7
2017-Nov-14 13:00N 50°43' W 000°59'917.9
2017-Nov-14 12:30N 50°34' W 000°58'2519.3
2017-Nov-14 11:14N 50°11' W 000°45'520.0
2017-Nov-14 11:00N 50°06' W 000°43'1020.2
2017-Nov-14 10:30N 49°57' W 000°38'1020.4
2017-Nov-14 10:00N 49°47' W 000°33'1019.4
2017-Nov-14 09:30N 49°39' W 000°26'917.7
2017-Nov-14 09:00N 49°31' W 000°19'1019.7
2017-Nov-14 08:31N 49°21' W 000°15'4 8.2
2017-Nov-14 08:01N 49°17' W 000°15'0 0.0
2017-Nov-14 07:31N 49°17' W 000°15'0 0.0
2017-Nov-14 07:00N 49°17' W 000°15'0 0.0
2017-Nov-14 06:30N 49°17' W 000°15'0 0.0
2017-Nov-14 06:01N 49°17' W 000°15'3 6.4
2017-Nov-14 05:30N 49°21' W 000°14'917.6
2017-Nov-14 05:00N 49°29' W 000°14'816.3
2017-Nov-14 04:30N 49°37' W 000°18'816.7
2017-Nov-14 04:00N 49°45' W 000°23'816.6
2017-Nov-14 03:30N 49°52' W 000°29'816.3
2017-Nov-14 03:00N 49°60' W 000°34'916.7
2017-Nov-14 02:30N 50°07' W 000°40'2517.1
2017-Nov-14 01:03N 50°30' W 000°54'216.9
2017-Nov-14 00:57N 50°32' W 000°55'717.0
2017-Nov-14 00:30N 50°39' W 000°59'714.3
2017-Nov-14 00:01N 50°45' W 001°05'4 7.6
2017-Nov-13 23:30N 50°49' W 001°06'0 0.0
2017-Nov-13 23:00N 50°49' W 001°06'0 0.0
2017-Nov-13 22:30N 50°49' W 001°06'0 0.0
2017-Nov-13 22:00N 50°49' W 001°06'60 3.0
2017-Nov-13 01:54N 49°49' W 001°00'613.0
2017-Nov-13 01:28N 49°43' W 001°01'612.8
2017-Nov-13 01:00N 49°37' W 001°01'713.1
2017-Nov-13 00:30N 49°34' W 000°53'713.7
2017-Nov-13 00:00N 49°31' W 000°43'713.9
2017-Nov-12 23:31N 49°28' W 000°33'714.0
2017-Nov-12 23:00N 49°25' W 000°24'713.9
2017-Nov-12 22:30N 49°21' W 000°15'4 7.6
2017-Nov-12 22:00N 49°17' W 000°15'0 0.0
2017-Nov-12 21:30N 49°17' W 000°15'0 0.0
2017-Nov-12 21:00N 49°17' W 000°15'0 0.0
2017-Nov-12 20:30N 49°17' W 000°15'2 3.6
2017-Nov-12 20:00N 49°19' W 000°15'918.5
2017-Nov-12 19:30N 49°28' W 000°18'1019.7
2017-Nov-12 19:00N 49°37' W 000°25'1019.9
2017-Nov-12 18:30N 49°46' W 000°31'1020.1
2017-Nov-12 18:00N 49°56' W 000°36'1020.3
2017-Nov-12 17:30N 50°05' W 000°41'2820.1
2017-Nov-12 16:06N 50°32' W 000°54'220.2
2017-Nov-12 16:00N 50°34' W 000°56'918.5
2017-Nov-12 15:30N 50°42' W 001°01'713.9
2017-Nov-12 15:01N 50°48' W 001°07'1 1.5
2017-Nov-12 14:31N 50°49' W 001°06'0 0.0
2017-Nov-12 14:01N 50°49' W 001°06'0 0.0
2017-Nov-12 13:31N 50°49' W 001°06'1 1.1
2017-Nov-12 13:01N 50°49' W 001°07'611.8
2017-Nov-12 12:30N 50°43' W 001°02'917.3
2017-Nov-12 12:00N 50°35' W 000°57'2718.6
2017-Nov-12 10:32N 50°11' W 000°37'118.4
2017-Nov-12 10:30N 50°11' W 000°37'918.6
2017-Nov-12 10:00N 50°01' W 000°35'918.7
2017-Nov-12 09:30N 49°52' W 000°32'918.9
2017-Nov-12 09:00N 49°43' W 000°27'1019.0
2017-Nov-12 08:30N 49°35' W 000°22'918.9
2017-Nov-12 08:00N 49°26' W 000°17'816.5
2017-Nov-12 07:30N 49°18' W 000°15'0 0.4
2017-Nov-12 07:00N 49°17' W 000°15'0 0.0
2017-Nov-12 06:30N 49°17' W 000°15'0 0.0
2017-Nov-12 06:00N 49°17' W 000°15'0 0.1
2017-Nov-12 05:30N 49°17' W 000°15'713.9
2017-Nov-12 05:01N 49°24' W 000°14'815.2
2017-Nov-12 04:31N 49°31' W 000°18'815.6
2017-Nov-12 04:01N 49°38' W 000°24'815.5
2017-Nov-12 03:31N 49°45' W 000°29'815.4
2017-Nov-12 03:01N 49°52' W 000°33'815.6
2017-Nov-12 02:31N 49°60' W 000°37'815.6
2017-Nov-12 02:01N 50°07' W 000°43'2215.0
2017-Nov-12 00:31N 50°28' W 000°52'015.4
2017-Nov-12 00:29N 50°29' W 000°52'715.4
2017-Nov-12 00:01N 50°35' W 000°56'714.6
2017-Nov-11 23:31N 50°43' W 000°59'713.5
2017-Nov-11 23:01N 50°47' W 001°07'1 3.0
2017-Nov-11 22:31N 50°49' W 001°06'0 0.0
2017-Nov-11 22:00N 50°49' W 001°06'0 0.0
2017-Nov-11 21:30N 50°49' W 001°06'3 5.1
2017-Nov-11 21:00N 50°46' W 001°05'816.7
2017-Nov-11 20:30N 50°39' W 000°59'1019.6
2017-Nov-11 20:00N 50°30' W 000°53'2319.9
2017-Nov-11 18:52N 50°09' W 000°38'719.8
2017-Nov-11 18:30N 50°03' W 000°34'1019.6
2017-Nov-11 18:00N 49°54' W 000°28'1019.1
2017-Nov-11 17:30N 49°45' W 000°22'918.7
2017-Nov-11 17:00N 49°36' W 000°17'918.7
2017-Nov-11 16:30N 49°27' W 000°17'917.7
2017-Nov-11 16:00N 49°18' W 000°15'1 1.3
2017-Nov-11 15:30N 49°17' W 000°15'0 0.0
2017-Nov-11 15:00N 49°17' W 000°15'0 0.0
2017-Nov-11 14:30N 49°17' W 000°15'0 0.0
2017-Nov-11 14:00N 49°17' W 000°15'5 9.4
2017-Nov-11 13:31N 49°22' W 000°14'1019.7
2017-Nov-11 13:00N 49°32' W 000°18'1020.5
2017-Nov-11 12:31N 49°41' W 000°25'1020.6
2017-Nov-11 12:01N 49°50' W 000°32'1020.5
2017-Nov-11 11:31N 49°59' W 000°40'1020.1
2017-Nov-11 11:00N 50°08' W 000°47'2319.7
2017-Nov-11 09:49N 50°30' W 000°59'619.2
2017-Nov-11 09:31N 50°36' W 000°60'816.8
2017-Nov-11 09:01N 50°44' W 001°04'510.0
2017-Nov-11 08:30N 50°49' W 001°06'0 0.0
2017-Nov-11 08:00N 50°49' W 001°06'0 0.0
2017-Nov-11 07:30N 50°49' W 001°06'0 0.0
2017-Nov-11 07:00N 50°49' W 001°06'0 0.0
2017-Nov-11 06:30N 50°49' W 001°06'3 6.4
2017-Nov-11 06:00N 50°45' W 001°05'917.4
2017-Nov-11 05:30N 50°38' W 000°59'816.8
2017-Nov-11 05:00N 50°29' W 000°59'1715.1
2017-Nov-11 03:54N 50°13' W 000°55'615.3
2017-Nov-11 03:30N 50°07' W 000°54'815.1
2017-Nov-11 03:00N 49°59' W 000°54'714.9
2017-Nov-11 02:30N 49°52' W 000°53'715.0
2017-Nov-11 02:01N 49°44' W 000°53'815.1
2017-Nov-11 01:30N 49°37' W 000°53'510.2
2017-Nov-11 01:00N 49°34' W 000°47'5 9.7
2017-Nov-11 00:30N 49°31' W 000°41'5 9.8
2017-Nov-11 00:00N 49°28' W 000°35'5 9.8
2017-Nov-10 23:30N 49°26' W 000°28'5 9.8
2017-Nov-10 23:00N 49°24' W 000°21'611.6
2017-Nov-10 22:30N 49°20' W 000°14'3 5.6
2017-Nov-10 22:00N 49°17' W 000°15'0 0.0
2017-Nov-10 21:30N 49°17' W 000°15'0 0.0
2017-Nov-10 21:00N 49°17' W 000°15'0 0.0
2017-Nov-10 20:30N 49°17' W 000°15'0 0.0
2017-Nov-10 20:00N 49°17' W 000°15'0 0.0
2017-Nov-10 19:30N 49°17' W 000°15'0 0.0
2017-Nov-10 19:00N 49°17' W 000°15'0 0.0
2017-Nov-10 18:30N 49°17' W 000°15'0 0.0
2017-Nov-10 18:00N 49°17' W 000°15'0 0.0
2017-Nov-10 17:30N 49°17' W 000°15'0 0.0
2017-Nov-10 17:00N 49°17' W 000°15'0 0.0
2017-Nov-10 16:30N 49°17' W 000°15'0 0.0
2017-Nov-10 16:00N 49°17' W 000°15'0 0.0
2017-Nov-10 15:30N 49°17' W 000°15'0 0.0
2017-Nov-10 15:00N 49°17' W 000°15'0 0.0
2017-Nov-10 14:30N 49°17' W 000°15'0 0.1
2017-Nov-10 14:00N 49°17' W 000°15'510.0
2017-Nov-10 13:31N 49°22' W 000°14'714.3
2017-Nov-10 13:01N 49°29' W 000°18'917.3
2017-Nov-10 12:31N 49°37' W 000°22'918.1
2017-Nov-10 12:01N 49°46' W 000°28'918.3
2017-Nov-10 11:30N 49°54' W 000°33'918.8
2017-Nov-10 11:00N 50°03' W 000°38'3219.6
2017-Nov-10 09:21N 50°33' W 000°56'719.4
2017-Nov-10 09:01N 50°40' W 000°58'816.6
2017-Nov-10 08:30N 50°46' W 001°06'2 4.4
2017-Nov-10 08:00N 50°49' W 001°06'0 0.0
2017-Nov-10 07:30N 50°49' W 001°06'0 0.0
2017-Nov-10 07:00N 50°49' W 001°06'0 0.2
2017-Nov-10 06:30N 50°49' W 001°06'4 7.5
2017-Nov-10 06:01N 50°45' W 001°05'816.9
2017-Nov-10 05:30N 50°38' W 000°58'815.7
2017-Nov-10 04:59N 50°30' W 000°54'2015.3
2017-Nov-10 03:41N 50°11' W 000°43'314.8
2017-Nov-10 03:30N 50°09' W 000°41'714.5
2017-Nov-10 03:00N 50°02' W 000°37'714.5
2017-Nov-10 02:30N 49°55' W 000°34'611.6
2017-Nov-10 02:00N 49°50' W 000°30'510.8
2017-Nov-10 01:30N 49°45' W 000°27'510.7
2017-Nov-10 01:00N 49°40' W 000°24'  

Dump ship's entire track history